createdAt,value
2023-01-29T00:02:30.334Z,101671.69
2023-01-29T00:05:13.026Z,101673.22
2023-01-29T00:07:48.039Z,101659.38
2023-01-29T00:10:19.498Z,101670.69
2023-01-29T00:12:50.388Z,101662.28
2023-01-29T00:15:22.187Z,101661.94
2023-01-29T00:17:53.267Z,101656.03
2023-01-29T00:20:24.841Z,101658.13
2023-01-29T00:22:56.144Z,101651.75
2023-01-29T00:25:27.483Z,101666.22
2023-01-29T00:27:58.982Z,101659.94
2023-01-29T00:30:29.601Z,101666.81
2023-01-29T00:33:00.655Z,101671.53
2023-01-29T00:35:32.492Z,101678.34
2023-01-29T00:38:03.842Z,101675.69
2023-01-29T00:40:57.520Z,101679.31
2023-01-29T00:43:46.681Z,101672.91
2023-01-29T00:46:18.730Z,101677.78
2023-01-29T00:48:49.722Z,101664.59
2023-01-29T00:51:20.935Z,101694.19
2023-01-29T00:53:52.020Z,101678.22
2023-01-29T00:56:23.244Z,101699.88
2023-01-29T00:58:54.542Z,101706.50
2023-01-29T01:01:43.233Z,101705.41
2023-01-29T01:04:15.197Z,101705.75
2023-01-29T01:06:45.544Z,101709.56
2023-01-29T01:09:34.529Z,101703.09
2023-01-29T01:12:05.874Z,101712.41
2023-01-29T01:14:37.594Z,101715.69
2023-01-29T01:17:08.780Z,101718.94
2023-01-29T01:19:39.894Z,101724.75
2023-01-29T01:22:11.230Z,101733.25
2023-01-29T01:24:42.715Z,101742.84
2023-01-29T01:27:14.170Z,101743.72
2023-01-29T01:29:45.355Z,101748.31
2023-01-29T01:32:17.462Z,101749.97
2023-01-29T01:34:48.292Z,101754.66
2023-01-29T01:37:19.161Z,101759.88
2023-01-29T01:39:50.600Z,101781.22
2023-01-29T01:42:21.882Z,101771.38
2023-01-29T01:44:59.697Z,101751.41
2023-01-29T01:47:50.286Z,101738.81
2023-01-29T01:50:23.441Z,101737.22
2023-01-29T01:52:57.902Z,101726.78
2023-01-29T01:55:31.293Z,101723.81
2023-01-29T01:58:08.321Z,101727.41
2023-01-29T02:00:41.690Z,101729.03
2023-01-29T02:03:31.428Z,101730.97
2023-01-29T02:06:21.059Z,101725.50
2023-01-29T02:09:18.057Z,101727.69
2023-01-29T02:11:49.511Z,101732.88
2023-01-29T02:14:21.284Z,101730.97
2023-01-29T02:16:52.393Z,101726.59
2023-01-29T02:19:49.003Z,101730.94
2023-01-29T02:22:37.966Z,101726.84
2023-01-29T02:25:17.920Z,101737.75
2023-01-29T02:28:10.049Z,101730.88
2023-01-29T02:30:49.927Z,101731.97
2023-01-29T02:33:39.538Z,101732.25
2023-01-29T02:36:21.929Z,101729.47
2023-01-29T02:39:03.058Z,101737.66
2023-01-29T02:41:39.510Z,101733.47
2023-01-29T02:44:13.783Z,101731.97
2023-01-29T02:47:00.171Z,101731.91
2023-01-29T02:49:35.818Z,101734.28
2023-01-29T02:52:46.020Z,101723.56
2023-01-29T02:55:25.622Z,101722.09
2023-01-29T02:58:00.380Z,101724.31
2023-01-29T03:00:40.299Z,101719.56
2023-01-29T03:03:20.184Z,101722.06
2023-01-29T03:06:00.696Z,101720.78
2023-01-29T03:08:46.799Z,101721.75
2023-01-29T03:11:18.733Z,101710.41
2023-01-29T03:13:58.485Z,101712.00
2023-01-29T03:16:53.516Z,101708.31
2023-01-29T03:19:33.339Z,101700.03
2023-01-29T03:22:09.917Z,101699.22
2023-01-29T03:25:20.495Z,101709.53
2023-01-29T03:28:19.164Z,101709.13
2023-01-29T03:31:12.491Z,101702.06
2023-01-29T03:33:53.994Z,101701.34
2023-01-29T03:36:47.327Z,101704.88
2023-01-29T03:39:19.614Z,101693.69
2023-01-29T03:41:58.211Z,101678.16
2023-01-29T03:44:38.607Z,101672.63
2023-01-29T03:47:17.697Z,101675.69
2023-01-29T03:50:00.892Z,101673.41
2023-01-29T03:52:40.002Z,101667.94
2023-01-29T03:55:27.090Z,101648.38
2023-01-29T03:58:01.065Z,101646.41
2023-01-29T04:00:40.592Z,101640.88
2023-01-29T04:03:23.937Z,101637.34
2023-01-29T04:06:11.219Z,101639.97
2023-01-29T04:09:17.267Z,101637.41
2023-01-29T04:11:53.899Z,101648.13
2023-01-29T04:14:25.083Z,101639.50
2023-01-29T04:17:01.703Z,101642.19
2023-01-29T04:19:42.250Z,101656.63
2023-01-29T04:22:23.175Z,101647.47
2023-01-29T04:24:54.636Z,101644.94
2023-01-29T04:27:29.762Z,101658.81
2023-01-29T04:30:17.940Z,101646.69
2023-01-29T04:32:53.349Z,101646.50
2023-01-29T04:35:31.953Z,101646.13
2023-01-29T04:38:41.642Z,101652.56
2023-01-29T04:41:26.973Z,101650.06
2023-01-29T04:44:13.457Z,101644.53
2023-01-29T04:47:11.611Z,101645.41
2023-01-29T04:50:08.203Z,101649.91
2023-01-29T04:53:07.923Z,101653.25
2023-01-29T04:55:52.177Z,101654.59
2023-01-29T04:58:41.331Z,101654.19
2023-01-29T05:01:16.522Z,101645.78
2023-01-29T05:03:51.980Z,101648.00
2023-01-29T05:06:23.451Z,101656.50
2023-01-29T05:08:55.085Z,101662.34
2023-01-29T05:11:27.876Z,101659.94
2023-01-29T05:13:59.391Z,101658.34
2023-01-29T05:16:44.998Z,101661.63
2023-01-29T05:19:17.705Z,101665.78
2023-01-29T05:21:50.813Z,101667.78
2023-01-29T05:24:27.066Z,101672.66
2023-01-29T05:27:16.387Z,101667.13
2023-01-29T05:29:48.883Z,101668.59
2023-01-29T05:32:19.919Z,101674.88
2023-01-29T05:34:51.066Z,101680.09
2023-01-29T05:37:22.446Z,101687.47
2023-01-29T05:39:56.413Z,101685.59
2023-01-29T05:42:27.485Z,101689.38
2023-01-29T05:44:59.237Z,101699.22
2023-01-29T05:47:30.420Z,101688.59
2023-01-29T05:50:04.120Z,101683.31
2023-01-29T05:52:35.261Z,101690.66
2023-01-29T05:55:08.821Z,101689.84
2023-01-29T05:57:41.603Z,101694.19
2023-01-29T06:00:14.750Z,101696.09
2023-01-29T06:02:46.439Z,101700.16
2023-01-29T06:05:21.307Z,101702.88
2023-01-29T06:07:52.205Z,101707.47
2023-01-29T06:10:23.145Z,101704.28
2023-01-29T06:12:54.053Z,101698.59
2023-01-29T06:15:27.816Z,101695.59
2023-01-29T06:17:59.667Z,101696.41
2023-01-29T06:20:30.181Z,101697.88
2023-01-29T06:23:02.350Z,101692.94
2023-01-29T06:25:33.032Z,101698.81
2023-01-29T06:28:04.045Z,101695.78
2023-01-29T06:30:35.035Z,101703.72
2023-01-29T06:33:06.241Z,101702.59
2023-01-29T06:35:37.121Z,101706.81
2023-01-29T06:38:08.217Z,101703.25
2023-01-29T06:40:41.175Z,101700.59
2023-01-29T06:43:12.225Z,101686.47
2023-01-29T06:45:56.709Z,101707.06
2023-01-29T06:48:27.885Z,101702.19
2023-01-29T06:51:03.219Z,101697.66
2023-01-29T06:53:36.100Z,101696.78
2023-01-29T06:56:08.069Z,101702.63
2023-01-29T06:58:39.930Z,101691.44
2023-01-29T07:01:29.035Z,101723.25
2023-01-29T07:04:04.576Z,101714.56
2023-01-29T07:06:36.978Z,101726.06
2023-01-29T07:09:08.110Z,101734.38
2023-01-29T07:11:39.473Z,101734.09
2023-01-29T07:14:10.383Z,101750.28
2023-01-29T07:16:41.358Z,101745.94
2023-01-29T07:19:12.476Z,101752.28
2023-01-29T07:21:43.560Z,101762.50
2023-01-29T07:24:14.545Z,101766.63
2023-01-29T07:26:45.733Z,101760.06
2023-01-29T07:29:16.803Z,101756.78
2023-01-29T07:31:48.182Z,101753.22
2023-01-29T07:34:19.542Z,101755.47
2023-01-29T07:36:56.158Z,101744.50
2023-01-29T07:39:27.631Z,101740.66
2023-01-29T07:41:58.879Z,101752.75
2023-01-29T07:44:30.835Z,101731.69
2023-01-29T07:47:01.805Z,101743.47
2023-01-29T07:49:32.748Z,101737.16
2023-01-29T07:52:04.232Z,101742.94
2023-01-29T07:54:35.263Z,101736.91
2023-01-29T07:57:06.717Z,101729.50
2023-01-29T07:59:38.028Z,101724.34
2023-01-29T08:02:10.735Z,101731.97
2023-01-29T08:04:42.133Z,101722.69
2023-01-29T08:07:13.294Z,101734.44
2023-01-29T08:09:44.138Z,101730.06
2023-01-29T08:12:15.106Z,101739.09
2023-01-29T08:14:47.223Z,101743.75
2023-01-29T08:17:18.474Z,101749.47
2023-01-29T08:19:49.816Z,101756.63
2023-01-29T08:22:20.744Z,101772.78
2023-01-29T08:24:54.273Z,101790.28
2023-01-29T08:27:31.092Z,101791.38
2023-01-29T08:30:02.290Z,101804.22
2023-01-29T08:32:34.352Z,101816.84
2023-01-29T08:35:05.506Z,101832.69
2023-01-29T08:37:36.715Z,101847.22
2023-01-29T08:40:10.882Z,101872.41
2023-01-29T08:42:43.529Z,101876.22
2023-01-29T08:45:14.498Z,101891.56
2023-01-29T08:47:52.073Z,101895.13
2023-01-29T08:50:22.972Z,101895.13
2023-01-29T08:52:54.147Z,101903.63
2023-01-29T08:55:25.188Z,101905.56
2023-01-29T08:57:56.288Z,101905.56
2023-01-29T09:00:27.769Z,101902.56
2023-01-29T09:03:01.171Z,101914.59
2023-01-29T09:05:32.962Z,101918.72
2023-01-29T09:08:03.404Z,101918.72
2023-01-29T09:10:34.915Z,101929.13
2023-01-29T09:13:06.294Z,101934.88
2023-01-29T09:15:36.864Z,101936.22
2023-01-29T09:18:08.164Z,101933.53
2023-01-29T09:20:41.930Z,101922.00
2023-01-29T09:23:13.966Z,101921.19
2023-01-29T09:25:45.927Z,101937.28
2023-01-29T09:28:19.022Z,101935.38
2023-01-29T09:30:50.560Z,101911.84
2023-01-29T09:33:21.899Z,101923.59
2023-01-29T09:35:52.854Z,101924.91
2023-01-29T09:38:24.012Z,101932.00
2023-01-29T09:41:09.357Z,101930.88
2023-01-29T09:44:02.678Z,101924.00
2023-01-29T09:46:44.334Z,101920.88
2023-01-29T09:49:27.030Z,101930.44
2023-01-29T09:52:12.621Z,101935.81
2023-01-29T09:54:57.523Z,101938.28
2023-01-29T09:57:46.853Z,101932.47
2023-01-29T10:00:49.079Z,101923.50
2023-01-29T10:03:30.234Z,101924.81
2023-01-29T10:06:14.688Z,101914.44
2023-01-29T10:08:55.016Z,101917.97
2023-01-29T10:11:42.186Z,101912.75
2023-01-29T10:14:32.823Z,101929.69
2023-01-29T10:17:36.017Z,101925.28
2023-01-29T10:20:22.162Z,101941.94
2023-01-29T10:23:03.225Z,101943.81
2023-01-29T10:25:38.700Z,101934.59
2023-01-29T10:28:24.655Z,101920.13
2023-01-29T10:31:02.469Z,101913.09
2023-01-29T10:34:02.571Z,101899.72
2023-01-29T10:36:49.504Z,101896.50
2023-01-29T10:39:22.677Z,101899.56
2023-01-29T10:42:07.657Z,101908.03
2023-01-29T10:44:53.893Z,101901.28
2023-01-29T10:47:41.946Z,101896.16
2023-01-29T10:50:31.051Z,101884.41
2023-01-29T10:53:21.507Z,101885.78
2023-01-29T10:56:02.508Z,101886.03
2023-01-29T10:59:03.867Z,101891.78
2023-01-29T11:01:34.768Z,101891.78
2023-01-29T11:04:07.978Z,101888.50
2023-01-29T11:06:39.618Z,101891.47
2023-01-29T11:12:07.970Z,101894.19
2023-01-29T11:14:48.242Z,101914.66
2023-01-29T11:17:21.293Z,101924.22
2023-01-29T11:19:54.748Z,101930.00
2023-01-29T11:22:28.280Z,101956.78
2023-01-29T11:25:21.331Z,101955.94
2023-01-29T11:27:55.602Z,101956.78
2023-01-29T11:30:31.163Z,101949.13
2023-01-29T11:33:20.848Z,101939.88
2023-01-29T11:35:53.981Z,101936.31
2023-01-29T11:38:29.881Z,101940.97
2023-01-29T11:41:23.797Z,101940.16
2023-01-29T11:43:55.033Z,101927.03
2023-01-29T11:46:25.949Z,101931.09
2023-01-29T11:48:59.293Z,101918.00
2023-01-29T11:51:37.637Z,101910.91
2023-01-29T11:54:08.657Z,101921.28
2023-01-29T11:56:43.503Z,101909.84
2023-01-29T11:59:39.489Z,101910.38
2023-01-29T12:02:53.544Z,101912.00
2023-01-29T12:05:29.518Z,101906.81
2023-01-29T12:08:02.771Z,101908.44
2023-01-29T12:10:39.712Z,101913.13
2023-01-29T12:13:13.509Z,101906.03
2023-01-29T12:15:45.410Z,101891.25
2023-01-29T12:18:28.188Z,101905.75
2023-01-29T12:21:05.334Z,101907.13
2023-01-29T12:24:06.468Z,101912.28
2023-01-29T12:26:54.003Z,101909.84
2023-01-29T12:29:34.243Z,101909.56
2023-01-29T12:32:11.458Z,101909.81
2023-01-29T12:34:54.909Z,101905.75
2023-01-29T12:37:39.330Z,101896.75
2023-01-29T12:40:16.177Z,101896.19
2023-01-29T12:42:54.192Z,101891.28
2023-01-29T12:45:27.149Z,101898.09
2023-01-29T12:48:03.687Z,101883.63
2023-01-29T12:50:39.144Z,101892.66
2023-01-29T12:53:25.757Z,101891.31
2023-01-29T12:56:01.425Z,101887.47
2023-01-29T12:58:40.242Z,101889.09
2023-01-29T13:01:28.630Z,101879.81
2023-01-29T13:04:06.435Z,101882.50
2023-01-29T13:06:46.811Z,101878.16
2023-01-29T13:09:27.776Z,101871.34
2023-01-29T13:12:03.776Z,101870.81
2023-01-29T13:14:56.885Z,101878.16
2023-01-29T13:17:44.405Z,101882.53
2023-01-29T13:20:20.532Z,101866.97
2023-01-29T13:22:52.606Z,101879.00
2023-01-29T13:25:23.840Z,101874.59
2023-01-29T13:27:54.936Z,101874.91
2023-01-29T13:30:32.032Z,101871.88
2023-01-29T13:33:11.457Z,101862.88
2023-01-29T13:35:44.832Z,101855.19
2023-01-29T13:38:36.796Z,101863.41
2023-01-29T13:41:07.491Z,101868.34
2023-01-29T13:43:40.882Z,101856.88
2023-01-29T13:46:22.771Z,101856.03
2023-01-29T13:48:56.702Z,101853.03
2023-01-29T13:51:36.499Z,101852.47
2023-01-29T13:54:19.035Z,101853.84
2023-01-29T13:56:56.135Z,101852.22
2023-01-29T13:59:57.808Z,101846.75
2023-01-29T14:02:31.022Z,101848.38
2023-01-29T14:05:35.146Z,101836.66
2023-01-29T14:08:11.048Z,101842.41
2023-01-29T14:10:45.689Z,101841.03
2023-01-29T14:13:20.265Z,101836.66
2023-01-29T14:16:00.543Z,101832.28
2023-01-29T14:18:33.977Z,101830.38
2023-01-29T14:21:23.304Z,101822.44
2023-01-29T14:23:59.743Z,101812.06
2023-01-29T14:26:34.656Z,101813.16
2023-01-29T14:29:25.610Z,101813.16
2023-01-29T14:32:21.092Z,101817.81
2023-01-29T14:35:23.222Z,101818.63
2023-01-29T14:37:57.231Z,101811.78
2023-01-29T14:40:31.280Z,101812.34
2023-01-29T14:43:24.384Z,101805.78
2023-01-29T14:45:55.903Z,101805.25
2023-01-29T14:48:41.462Z,101801.94
2023-01-29T14:51:17.678Z,101803.59
2023-01-29T14:54:22.918Z,101810.16
2023-01-29T14:57:07.451Z,101803.88
2023-01-29T14:59:58.735Z,101803.88
2023-01-29T15:02:53.655Z,101798.69
2023-01-29T15:05:33.583Z,101803.31
2023-01-29T15:08:34.331Z,101807.16
2023-01-29T15:11:38.061Z,101801.13
2023-01-29T15:14:09.203Z,101813.16
2023-01-29T15:17:02.812Z,101811.50
2023-01-29T15:19:46.226Z,101811.22
2023-01-29T15:22:26.446Z,101813.97
2023-01-29T15:25:23.798Z,101816.97
2023-01-29T15:27:55.920Z,101809.88
2023-01-29T15:30:34.510Z,101809.88
2023-01-29T15:33:06.391Z,101816.41
2023-01-29T15:35:40.441Z,101810.94
2023-01-29T15:38:22.837Z,101816.13
2023-01-29T15:41:00.776Z,101815.03
2023-01-29T15:43:36.431Z,101818.88
2023-01-29T15:46:31.680Z,101811.22
2023-01-29T15:49:07.808Z,101813.09
2023-01-29T15:51:38.900Z,101814.75
2023-01-29T15:54:14.724Z,101816.69
2023-01-29T15:56:49.858Z,101813.97
2023-01-29T15:59:24.345Z,101824.88
2023-01-29T16:01:58.325Z,101819.09
2023-01-29T16:04:33.265Z,101825.63
2023-01-29T16:07:05.684Z,101830.28
2023-01-29T16:09:36.833Z,101834.13
2023-01-29T16:12:08.423Z,101833.84
2023-01-29T16:14:39.575Z,101835.75
2023-01-29T16:17:39.873Z,101834.34
2023-01-29T16:20:42.982Z,101839.00
2023-01-29T16:23:43.837Z,101831.88
2023-01-29T16:26:19.351Z,101835.44
2023-01-29T16:28:50.674Z,101834.59
2023-01-29T16:31:40.462Z,101828.88
2023-01-29T16:34:23.285Z,101828.34
2023-01-29T16:36:55.927Z,101830.53
2023-01-29T16:39:30.314Z,101831.84
2023-01-29T16:42:22.297Z,101826.41
2023-01-29T16:44:53.964Z,101828.31
2023-01-29T16:47:37.407Z,101827.50
2023-01-29T16:50:26.477Z,101825.56
2023-01-29T16:53:03.849Z,101821.47
2023-01-29T16:55:50.864Z,101829.94
2023-01-29T16:58:24.292Z,101825.28
2023-01-29T17:01:01.021Z,101829.38
2023-01-29T17:03:34.614Z,101836.47
2023-01-29T17:06:21.297Z,101839.47
2023-01-29T17:08:52.812Z,101839.72
2023-01-29T17:11:37.012Z,101842.97
2023-01-29T17:14:09.996Z,101839.16
2023-01-29T17:16:57.512Z,101845.72
2023-01-29T17:19:28.534Z,101849.25
2023-01-29T17:22:00.694Z,101849.25
2023-01-29T17:24:33.012Z,101858.50
2023-01-29T17:27:04.679Z,101857.97
2023-01-29T17:29:36.211Z,101848.13
2023-01-29T17:32:07.843Z,101854.38
2023-01-29T17:34:38.876Z,101846.19
2023-01-29T17:37:15.746Z,101852.75
2023-01-29T17:39:54.160Z,101847.28
2023-01-29T17:42:25.225Z,101852.47
2023-01-29T17:44:56.209Z,101857.09
2023-01-29T17:47:27.698Z,101856.25
2023-01-29T17:49:59.982Z,101852.13
2023-01-29T17:52:33.676Z,101864.34
2023-01-29T17:55:04.552Z,101866.25
2023-01-29T17:57:36.141Z,101863.28
2023-01-29T18:00:22.800Z,101869.25
2023-01-29T18:02:53.983Z,101881.47
2023-01-29T18:05:25.046Z,101891.03
2023-01-29T18:07:56.491Z,101912.06
2023-01-29T18:10:27.640Z,101915.34
2023-01-29T18:12:58.779Z,101911.41
2023-01-29T18:15:30.246Z,101909.75
2023-01-29T18:18:01.414Z,101907.09
2023-01-29T18:20:38.069Z,101914.41
2023-01-29T18:23:10.298Z,101911.38
2023-01-29T18:25:42.230Z,101917.91
2023-01-29T18:28:20.592Z,101917.38
2023-01-29T18:30:52.464Z,101923.69
2023-01-29T18:33:24.088Z,101918.69
2023-01-29T18:35:58.118Z,101914.13
2023-01-29T18:38:30.036Z,101920.38
2023-01-29T18:41:08.206Z,101910.56
2023-01-29T18:43:40.827Z,101917.88
2023-01-29T18:46:12.274Z,101914.06
2023-01-29T18:48:43.316Z,101913.28
2023-01-29T18:51:14.554Z,101914.41
2023-01-29T18:53:47.243Z,101922.75
2023-01-29T18:56:18.395Z,101913.56
2023-01-29T18:58:52.293Z,101924.31
2023-01-29T19:01:28.582Z,101922.38
2023-01-29T19:04:01.743Z,101912.81
2023-01-29T19:06:37.202Z,101906.81
2023-01-29T19:09:08.892Z,101902.19
2023-01-29T19:11:39.974Z,101908.25
2023-01-29T19:14:11.197Z,101896.00
2023-01-29T19:16:44.181Z,101903.22
2023-01-29T19:19:15.270Z,101898.72
2023-01-29T19:21:46.190Z,101894.66
2023-01-29T19:24:17.173Z,101891.41
2023-01-29T19:26:48.282Z,101895.81
2023-01-29T19:29:19.676Z,101897.66
2023-01-29T19:31:50.466Z,101895.28
2023-01-29T19:34:21.887Z,101897.44
2023-01-29T19:36:53.095Z,101895.84
2023-01-29T19:39:24.283Z,101892.31
2023-01-29T19:41:55.308Z,101893.72
2023-01-29T19:44:26.939Z,101884.69
2023-01-29T19:46:58.328Z,101888.84
2023-01-29T19:49:30.531Z,101886.44
2023-01-29T19:52:04.393Z,101888.34
2023-01-29T19:54:35.519Z,101877.41
2023-01-29T19:57:08.974Z,101875.81
2023-01-29T19:59:40.280Z,101871.47
2023-01-29T20:02:11.686Z,101874.22
2023-01-29T20:04:42.718Z,101869.03
2023-01-29T20:07:13.676Z,101865.28
2023-01-29T20:09:44.832Z,101875.09
2023-01-29T20:12:16.689Z,101879.97
2023-01-29T20:14:53.536Z,101874.88
2023-01-29T20:17:24.720Z,101885.81
2023-01-29T20:19:55.665Z,101880.63
2023-01-29T20:22:28.651Z,101876.28
2023-01-29T20:24:59.891Z,101878.47
2023-01-29T20:27:30.561Z,101886.91
2023-01-29T20:30:01.882Z,101890.22
2023-01-29T20:32:34.530Z,101891.84
2023-01-29T20:35:05.578Z,101900.63
2023-01-29T20:37:36.622Z,101895.72
2023-01-29T20:40:08.975Z,101905.31
2023-01-29T20:42:39.530Z,101908.28
2023-01-29T20:45:11.031Z,101908.88
2023-01-29T20:47:41.693Z,101893.59
2023-01-29T20:50:15.183Z,101901.22
2023-01-29T20:52:46.398Z,101890.28
2023-01-29T20:55:17.395Z,101906.41
2023-01-29T20:58:06.301Z,101896.88
2023-01-29T21:00:38.024Z,101899.56
2023-01-29T21:03:09.162Z,101912.69
2023-01-29T21:05:40.096Z,101912.41
2023-01-29T21:08:11.136Z,101900.09
2023-01-29T21:10:43.323Z,101893.78
2023-01-29T21:13:14.752Z,101902.81
2023-01-29T21:15:45.762Z,101898.69
2023-01-29T21:18:17.136Z,101896.19
2023-01-29T21:20:48.848Z,101902.16
2023-01-29T21:23:20.250Z,101893.94
2023-01-29T21:25:51.563Z,101896.44
2023-01-29T21:28:22.512Z,101894.00
2023-01-29T21:30:53.457Z,101897.22
2023-01-29T21:33:24.673Z,101888.94
2023-01-29T21:36:02.151Z,101884.78
2023-01-29T21:38:33.102Z,101886.97
2023-01-29T21:41:07.080Z,101894.34
2023-01-29T21:43:38.339Z,101890.19
2023-01-29T21:46:13.293Z,101889.56
2023-01-29T21:48:44.643Z,101885.47
2023-01-29T21:51:18.560Z,101884.44
2023-01-29T21:53:49.951Z,101874.34
2023-01-29T21:56:21.289Z,101877.50
2023-01-29T21:58:52.359Z,101871.25
2023-01-29T22:01:36.638Z,101876.28
2023-01-29T22:04:13.016Z,101875.78
2023-01-29T22:06:44.324Z,101881.88
2023-01-29T22:09:15.392Z,101878.28
2023-01-29T22:11:46.832Z,101885.63
2023-01-29T22:14:19.791Z,101873.50
2023-01-29T22:16:51.185Z,101882.75
2023-01-29T22:19:22.440Z,101873.94
2023-01-29T22:21:56.762Z,101871.69
2023-01-29T22:24:27.916Z,101864.41
2023-01-29T22:26:58.888Z,101866.03
2023-01-29T22:29:29.871Z,101873.81
2023-01-29T22:32:01.330Z,101870.56
2023-01-29T22:34:32.269Z,101870.19
2023-01-29T22:37:04.046Z,101871.84
2023-01-29T22:39:35.459Z,101873.06
2023-01-29T22:42:06.497Z,101874.13
2023-01-29T22:44:37.586Z,101869.50
2023-01-29T22:47:08.433Z,101873.84
2023-01-29T22:49:39.546Z,101884.22
2023-01-29T22:52:13.790Z,101880.50
2023-01-29T22:54:46.046Z,101875.28
2023-01-29T22:57:17.408Z,101877.38
2023-01-29T22:59:48.677Z,101876.69
2023-01-29T23:02:19.684Z,101870.09
2023-01-29T23:04:50.941Z,101866.69
2023-01-29T23:07:22.076Z,101870.88
2023-01-29T23:09:53.441Z,101864.16
2023-01-29T23:12:24.511Z,101869.47
2023-01-29T23:14:55.419Z,101873.25
2023-01-29T23:17:26.258Z,101870.00
2023-01-29T23:19:57.530Z,101870.53
2023-01-29T23:22:28.413Z,101868.28
2023-01-29T23:24:59.360Z,101866.97
2023-01-29T23:27:30.567Z,101864.00
2023-01-29T23:30:01.543Z,101875.53
2023-01-29T23:32:33.538Z,101864.97
2023-01-29T23:35:04.714Z,101866.97
2023-01-29T23:37:35.994Z,101871.03
2023-01-29T23:40:07.370Z,101866.47
2023-01-29T23:42:39.205Z,101866.94
2023-01-29T23:45:10.848Z,101866.06
2023-01-29T23:47:42.229Z,101865.84
2023-01-29T23:50:13.798Z,101857.44
2023-01-29T23:52:44.752Z,101851.22
2023-01-29T23:55:15.718Z,101843.03
2023-01-29T23:57:46.732Z,101843.34
